createdAt,value
2023-05-16T00:00:54.675Z,14.02
2023-05-16T00:05:59.619Z,11.73
2023-05-16T00:11:03.191Z,9.27
2023-05-16T00:16:07.142Z,13.48
2023-05-16T00:21:12.234Z,10.87
2023-05-16T00:26:15.749Z,8.10
2023-05-16T00:31:19.409Z,9.70
2023-05-16T00:36:24.306Z,12.65
2023-05-16T00:46:31.026Z,11.77
2023-05-16T00:51:36.523Z,10.55
2023-05-16T00:56:40.079Z,19.75
2023-05-16T01:01:46.837Z,10.57
2023-05-16T01:06:52.195Z,14.13
2023-05-16T01:12:03.907Z,21.35
2023-05-16T01:17:16.145Z,10.20
2023-05-16T01:22:33.009Z,14.63
2023-05-16T01:27:41.014Z,11.65
2023-05-16T01:32:44.553Z,18.38
2023-05-16T01:37:59.241Z,12.80
2023-05-16T01:43:10.371Z,16.83
2023-05-16T01:48:19.384Z,12.18
2023-05-16T01:53:28.925Z,10.02
2023-05-16T01:58:35.455Z,10.88
2023-05-16T02:03:39.498Z,10.68
2023-05-16T02:08:43.106Z,8.33
2023-05-16T02:13:47.964Z,11.98
2023-05-16T02:24:14.656Z,10.13
2023-05-16T02:29:20.110Z,12.35
2023-05-16T02:34:23.578Z,8.73
2023-05-16T02:39:26.997Z,12.45
2023-05-16T02:44:31.874Z,8.25
2023-05-16T02:54:38.689Z,9.80
2023-05-16T02:59:43.742Z,12.13
2023-05-16T03:04:48.733Z,17.60
2023-05-16T03:09:52.619Z,17.63
2023-05-16T03:14:57.472Z,17.37
2023-05-16T03:25:04.351Z,14.55
2023-05-16T03:30:11.031Z,17.13
2023-05-16T03:35:14.493Z,21.45
2023-05-16T03:40:18.294Z,19.58
2023-05-16T03:45:25.093Z,16.73
2023-05-16T03:50:28.897Z,18.52
2023-05-16T03:55:32.565Z,22.45
2023-05-16T04:00:37.962Z,18.38
2023-05-16T04:05:41.455Z,14.38
2023-05-16T04:10:44.978Z,22.77
2023-05-16T04:15:49.994Z,16.47
2023-05-16T04:20:53.477Z,23.30
2023-05-16T04:25:57.392Z,15.83
2023-05-16T04:31:03.283Z,13.32
2023-05-16T04:36:07.284Z,13.63
2023-05-16T04:46:15.996Z,13.13
2023-05-16T04:51:19.701Z,13.35
2023-05-16T04:56:23.496Z,16.80
2023-05-16T05:01:28.393Z,15.20
2023-05-16T05:06:32.212Z,14.95
2023-05-16T05:11:35.753Z,13.23
2023-05-16T05:16:41.122Z,13.13
2023-05-16T05:21:44.918Z,13.95
2023-05-16T05:26:48.399Z,13.10
2023-05-16T05:31:53.404Z,9.30
2023-05-16T05:36:56.974Z,11.63
2023-05-16T05:42:00.571Z,10.45
2023-05-16T05:47:06.052Z,10.75
2023-05-16T05:52:09.542Z,9.65
2023-05-16T05:57:13.057Z,7.72
2023-05-16T06:02:18.075Z,12.82
2023-05-16T06:07:21.780Z,10.10
2023-05-16T06:12:25.344Z,9.30
2023-05-16T06:17:30.230Z,7.10
2023-05-16T06:22:33.772Z,8.60
2023-05-16T06:27:37.346Z,7.30
2023-05-16T06:32:42.293Z,5.75
2023-05-16T06:37:45.745Z,7.38
2023-05-16T06:42:49.254Z,4.15
2023-05-16T06:47:56.576Z,6.43
2023-05-16T06:53:00.854Z,8.57
2023-05-16T06:58:04.468Z,5.80
2023-05-16T07:03:09.564Z,5.82
2023-05-16T07:08:13.233Z,3.83
2023-05-16T07:13:16.795Z,7.28
2023-05-16T07:18:21.780Z,5.35
2023-05-16T07:23:25.484Z,5.00
2023-05-16T07:28:29.064Z,4.43
2023-05-16T07:33:34.108Z,6.70
2023-05-16T07:38:37.812Z,7.32
2023-05-16T07:43:44.143Z,3.78
2023-05-16T07:48:49.116Z,7.90
2023-05-16T07:53:53.124Z,3.20
2023-05-16T07:58:56.811Z,6.22
2023-05-16T08:04:02.000Z,4.72
2023-05-16T08:09:06.131Z,6.90
2023-05-16T08:14:09.944Z,5.93
2023-05-16T08:19:14.881Z,4.43
2023-05-16T08:24:18.664Z,5.15
2023-05-16T08:29:22.236Z,5.45
2023-05-16T08:34:27.419Z,4.72
2023-05-16T08:39:31.587Z,5.63
2023-05-16T08:44:36.290Z,5.38
2023-05-16T08:49:42.755Z,7.43
2023-05-16T08:54:55.305Z,7.70
2023-05-16T09:00:13.152Z,3.67
2023-05-16T09:05:19.149Z,4.00
2023-05-16T09:10:22.887Z,4.75
2023-05-16T09:20:41.468Z,5.07
2023-05-16T09:25:45.920Z,5.10
2023-05-16T09:30:50.183Z,7.43
2023-05-16T09:35:59.442Z,6.32
2023-05-16T09:41:03.952Z,7.75
2023-05-16T09:46:07.716Z,4.82
2023-05-16T09:51:14.171Z,8.30
2023-05-16T09:56:18.336Z,7.28
2023-05-16T10:01:22.215Z,9.13
2023-05-16T10:06:27.861Z,7.75
2023-05-16T10:11:31.974Z,7.00
2023-05-16T10:21:42.162Z,5.20
2023-05-16T10:26:45.945Z,8.82
2023-05-16T10:31:50.998Z,5.45
2023-05-16T10:36:56.753Z,4.40
2023-05-16T10:42:00.848Z,9.07
2023-05-16T10:57:21.061Z,4.50
2023-05-16T11:02:27.757Z,5.22
2023-05-16T11:07:35.394Z,8.30
2023-05-16T11:12:44.231Z,6.15
2023-05-16T11:17:48.114Z,8.02
2023-05-16T11:22:53.206Z,4.80
2023-05-16T11:27:56.795Z,6.95
2023-05-16T11:33:00.388Z,6.82
2023-05-16T11:38:05.766Z,6.63
2023-05-16T11:43:09.422Z,9.32
2023-05-16T11:48:21.826Z,7.85
2023-05-16T11:53:33.966Z,7.45
2023-05-16T11:58:38.583Z,5.68
2023-05-16T12:03:42.272Z,9.02
2023-05-16T12:08:52.899Z,10.30
2023-05-16T12:13:56.762Z,6.40
2023-05-16T12:19:01.963Z,8.85
2023-05-16T12:24:10.704Z,4.22
2023-05-16T12:29:15.004Z,3.63
2023-05-16T12:34:21.551Z,8.75
2023-05-16T12:39:26.561Z,5.20
2023-05-16T12:44:31.766Z,4.28
2023-05-16T12:49:35.361Z,2.67
2023-05-16T12:54:40.306Z,4.80
2023-05-16T12:59:43.854Z,4.18
2023-05-16T13:04:47.720Z,4.50
2023-05-16T13:09:52.766Z,4.80
2023-05-16T13:14:56.290Z,5.28
2023-05-16T13:19:59.832Z,5.40
2023-05-16T13:25:06.454Z,5.63
2023-05-16T13:30:12.010Z,3.83
2023-05-16T13:35:16.207Z,3.83
2023-05-16T13:45:24.543Z,2.55
2023-05-16T13:50:33.411Z,5.35
2023-05-16T13:55:38.869Z,7.43
2023-05-16T14:00:45.695Z,4.90
2023-05-16T14:05:49.897Z,4.47
2023-05-16T14:10:54.889Z,5.93
2023-05-16T14:15:58.716Z,5.55
2023-05-16T14:21:02.535Z,7.60
2023-05-16T14:26:07.950Z,2.72
2023-05-16T14:31:11.859Z,4.63
2023-05-16T14:36:15.615Z,5.07
2023-05-16T14:41:21.163Z,4.75
2023-05-16T14:46:24.871Z,7.05
2023-05-16T14:51:28.490Z,5.75
2023-05-16T14:56:33.794Z,3.60
2023-05-16T15:01:37.466Z,3.55
2023-05-16T15:06:41.223Z,5.20
2023-05-16T15:11:46.485Z,5.80
2023-05-16T15:16:50.027Z,3.72
2023-05-16T15:21:53.599Z,3.75
2023-05-16T15:26:58.620Z,3.00
2023-05-16T15:32:06.082Z,5.60
2023-05-16T15:37:09.778Z,5.40
2023-05-16T15:42:14.799Z,5.32
2023-05-16T15:47:18.337Z,5.80
2023-05-16T15:52:22.913Z,8.93
2023-05-16T15:57:28.094Z,8.80
2023-05-16T16:02:31.784Z,3.15
2023-05-16T16:07:35.413Z,4.53
2023-05-16T16:12:40.971Z,5.80
2023-05-16T16:17:44.853Z,5.97
2023-05-16T16:22:48.608Z,5.22
2023-05-16T16:27:53.831Z,6.95
2023-05-16T16:32:57.423Z,7.00
2023-05-16T16:38:06.641Z,3.30
2023-05-16T16:43:12.496Z,8.00
2023-05-16T16:48:16.623Z,5.45
2023-05-16T16:53:20.156Z,7.75
2023-05-16T16:58:25.194Z,6.30
2023-05-16T17:03:28.934Z,7.53
2023-05-16T17:08:32.639Z,9.37
2023-05-16T17:13:37.842Z,13.90
2023-05-16T17:18:43.025Z,15.60
2023-05-16T17:23:46.757Z,7.07
2023-05-16T17:28:52.109Z,11.07
2023-05-16T17:33:55.761Z,7.53
2023-05-16T17:38:59.898Z,7.40
2023-05-16T17:44:06.995Z,7.47
2023-05-16T17:49:11.817Z,7.70
2023-05-16T17:54:16.281Z,8.73
2023-05-16T17:59:21.371Z,8.20
2023-05-16T18:04:25.267Z,8.48
2023-05-16T18:09:28.873Z,9.25
2023-05-16T18:14:33.966Z,9.53
2023-05-16T18:19:37.652Z,9.68
2023-05-16T18:24:41.320Z,7.37
2023-05-16T18:29:46.390Z,8.53
2023-05-16T18:34:50.415Z,10.45
2023-05-16T18:39:54.107Z,8.68
2023-05-16T18:44:59.366Z,8.00
2023-05-16T18:50:03.022Z,8.98
2023-05-16T18:55:08.911Z,9.18
2023-05-16T19:00:15.012Z,8.10
2023-05-16T19:05:19.872Z,6.47
2023-05-16T19:10:25.330Z,8.88
2023-05-16T19:15:30.452Z,9.55
2023-05-16T19:20:35.902Z,15.48
2023-05-16T19:25:45.738Z,7.80
2023-05-16T19:30:50.747Z,5.20
2023-05-16T19:35:54.748Z,10.10
2023-05-16T19:40:58.284Z,8.27
2023-05-16T19:46:03.477Z,8.07
2023-05-16T19:51:07.058Z,4.50
2023-05-16T19:56:11.037Z,10.60
2023-05-16T20:01:16.155Z,7.00
2023-05-16T20:06:19.658Z,6.85
2023-05-16T20:11:23.163Z,7.70
2023-05-16T20:16:28.337Z,12.27
2023-05-16T20:21:31.927Z,14.43
2023-05-16T20:26:35.561Z,15.30
2023-05-16T20:31:42.798Z,9.65
2023-05-16T20:36:46.368Z,10.52
2023-05-16T20:41:49.892Z,12.80
2023-05-16T20:46:55.044Z,10.27
2023-05-16T20:51:58.578Z,12.23
2023-05-16T20:57:02.787Z,10.40
2023-05-16T21:02:10.225Z,10.32
2023-05-16T21:07:13.789Z,11.65
2023-05-16T21:12:17.441Z,9.05
2023-05-16T21:17:22.508Z,12.45
2023-05-16T21:22:26.155Z,12.27
2023-05-16T21:27:29.770Z,10.88
2023-05-16T21:32:34.766Z,13.27
2023-05-16T21:37:38.332Z,11.00
2023-05-16T21:42:41.814Z,14.25
2023-05-16T21:47:47.998Z,16.25
2023-05-16T21:52:51.616Z,11.63
2023-05-16T21:57:55.149Z,15.82
2023-05-16T22:03:00.269Z,8.52
2023-05-16T22:08:03.941Z,12.80
2023-05-16T22:13:08.217Z,17.27
2023-05-16T22:18:13.282Z,13.52
2023-05-16T22:23:17.077Z,16.95
2023-05-16T22:28:20.965Z,17.90
2023-05-16T22:33:26.329Z,17.43
2023-05-16T22:38:30.026Z,13.32
2023-05-16T22:43:33.527Z,14.65
2023-05-16T22:48:38.798Z,16.17
2023-05-16T22:53:42.336Z,10.90
2023-05-16T22:58:45.834Z,12.48
2023-05-16T23:03:51.074Z,13.75
2023-05-16T23:08:54.679Z,17.40
2023-05-16T23:13:58.242Z,12.93
2023-05-16T23:19:03.273Z,17.02
2023-05-16T23:24:07.313Z,16.08
2023-05-16T23:29:10.958Z,16.97
2023-05-16T23:34:15.984Z,14.48
2023-05-16T23:39:21.545Z,16.13
2023-05-16T23:44:25.252Z,12.13
2023-05-16T23:49:30.383Z,12.07
2023-05-16T23:54:34.193Z,16.63
2023-05-16T23:59:37.886Z,14.27
